createdAt,value
2019-04-14T00:01:54.516Z,9.63
2019-04-14T00:04:28.953Z,6.35
2019-04-14T00:06:59.168Z,7.45
2019-04-14T00:09:29.445Z,6.33
2019-04-14T00:11:59.562Z,9.60
2019-04-14T00:14:29.364Z,6.97
2019-04-14T00:16:59.650Z,4.42
2019-04-14T00:19:30.549Z,5.97
2019-04-14T00:22:03.330Z,6.97
2019-04-14T00:24:33.554Z,6.42
2019-04-14T00:27:02.802Z,6.40
2019-04-14T00:29:32.754Z,5.30
2019-04-14T00:32:03.110Z,4.90
2019-04-14T00:34:59.277Z,4.95
2019-04-14T00:38:01.222Z,6.55
2019-04-14T00:40:36.799Z,6.58
2019-04-14T00:43:17.789Z,5.92
2019-04-14T00:45:55.113Z,6.17
2019-04-14T00:48:26.005Z,6.05
2019-04-14T00:50:55.983Z,5.70
2019-04-14T00:53:25.692Z,5.35
2019-04-14T00:55:55.399Z,6.90
2019-04-14T00:58:25.715Z,5.45
2019-04-14T01:00:55.944Z,4.80
2019-04-14T01:03:25.078Z,5.33
2019-04-14T01:05:54.846Z,7.05
2019-04-14T01:08:24.927Z,7.08
2019-04-14T01:10:54.114Z,5.20
2019-04-14T01:13:24.620Z,6.30
2019-04-14T01:16:01.742Z,6.65
2019-04-14T01:18:25.628Z,6.97
2019-04-14T01:20:55.663Z,7.08
2019-04-14T01:23:26.101Z,6.90
2019-04-14T01:25:56.430Z,5.47
2019-04-14T01:28:26.572Z,6.50
2019-04-14T01:30:56.593Z,7.70
2019-04-14T01:33:27.175Z,8.30
2019-04-14T01:35:57.401Z,6.92
2019-04-14T01:38:27.601Z,5.28
2019-04-14T01:40:57.757Z,5.28
2019-04-14T01:43:27.818Z,6.90
2019-04-14T01:46:05.119Z,5.20
2019-04-14T01:48:28.371Z,5.58
2019-04-14T01:51:17.787Z,6.60
2019-04-14T01:53:55.230Z,5.35
2019-04-14T01:56:47.123Z,6.70
2019-04-14T01:59:17.293Z,6.70
2019-04-14T02:01:47.900Z,6.40
2019-04-14T02:04:18.103Z,7.58
2019-04-14T02:06:48.405Z,4.95
2019-04-14T02:09:18.661Z,8.15
2019-04-14T02:11:48.839Z,5.90
2019-04-14T02:14:19.045Z,5.70
2019-04-14T02:16:55.245Z,4.58
2019-04-14T02:19:19.943Z,6.85
2019-04-14T02:21:49.888Z,5.35
2019-04-14T02:24:20.000Z,4.85
2019-04-14T02:26:50.315Z,5.28
2019-04-14T02:29:21.192Z,5.37
2019-04-14T02:32:17.931Z,5.92
2019-04-14T02:34:51.438Z,6.58
2019-04-14T02:37:21.272Z,7.50
2019-04-14T02:39:53.935Z,6.75
2019-04-14T02:44:55.373Z,7.22
2019-04-14T02:47:48.936Z,5.60
2019-04-14T02:49:56.195Z,6.58
2019-04-14T02:52:30.203Z,5.45
2019-04-14T02:54:59.959Z,5.90
2019-04-14T02:57:30.506Z,6.22
2019-04-14T03:00:07.736Z,5.25
2019-04-14T03:02:40.832Z,7.87
2019-04-14T03:10:01.127Z,5.53
2019-04-14T03:18:18.630Z,6.53
2019-04-14T03:20:59.155Z,4.75
2019-04-14T03:26:18.071Z,6.65
2019-04-14T03:28:51.084Z,6.33
2019-04-14T03:37:18.441Z,5.15
2019-04-14T03:41:45.665Z,6.85
2019-04-14T03:44:01.283Z,6.65
2019-04-14T03:46:34.477Z,5.50
2019-04-14T03:49:10.085Z,7.00
2019-04-14T03:51:52.502Z,7.03
2019-04-14T03:54:06.153Z,7.58
2019-04-14T03:56:48.739Z,5.10
2019-04-14T03:59:19.465Z,8.65
2019-04-14T04:01:50.051Z,8.50
2019-04-14T04:04:20.434Z,7.08
2019-04-14T04:06:51.001Z,5.60
2019-04-14T04:09:23.570Z,8.78
2019-04-14T04:11:54.135Z,7.50
2019-04-14T04:14:24.595Z,6.42
2019-04-14T04:17:07.949Z,7.12
2019-04-14T04:19:57.784Z,6.55
2019-04-14T04:22:46.258Z,7.42
2019-04-14T04:25:20.425Z,8.25
2019-04-14T04:28:10.179Z,6.62
2019-04-14T04:30:47.240Z,6.33
2019-04-14T04:33:32.704Z,5.35
2019-04-14T04:36:05.582Z,5.75
2019-04-14T04:38:44.276Z,6.22
2019-04-14T04:41:14.722Z,6.55
2019-04-14T04:43:45.177Z,8.25
2019-04-14T04:46:15.605Z,6.55
2019-04-14T04:48:58.332Z,4.85
2019-04-14T04:51:16.423Z,5.55
2019-04-14T04:53:46.189Z,7.12
2019-04-14T04:56:16.516Z,7.12
2019-04-14T04:58:46.171Z,5.85
2019-04-14T05:01:15.323Z,4.42
2019-04-14T05:03:44.997Z,6.47
2019-04-14T05:06:50.528Z,5.00
2019-04-14T05:09:29.574Z,6.65
2019-04-14T05:12:17.426Z,8.05
2019-04-14T05:14:52.438Z,7.90
2019-04-14T05:17:23.380Z,7.08
2019-04-14T05:19:53.965Z,5.85
2019-04-14T05:22:24.605Z,5.10
2019-04-14T05:24:55.039Z,5.17
2019-04-14T05:27:25.409Z,7.17
2019-04-14T05:29:55.824Z,7.12
2019-04-14T05:32:26.186Z,7.42
2019-04-14T05:34:56.533Z,6.67
2019-04-14T05:37:26.792Z,5.60
2019-04-14T05:39:56.983Z,8.55
2019-04-14T05:42:28.580Z,7.08
2019-04-14T05:44:58.235Z,8.30
2019-04-14T05:47:28.362Z,8.28
2019-04-14T05:49:59.283Z,8.00
2019-04-14T05:52:34.306Z,9.43
2019-04-14T05:55:04.425Z,6.37
2019-04-14T05:57:35.176Z,6.90
2019-04-14T06:00:06.676Z,6.03
2019-04-14T06:02:36.191Z,6.12
2019-04-14T06:05:06.490Z,5.80
2019-04-14T06:07:36.367Z,4.50
2019-04-14T06:10:06.560Z,6.78
2019-04-14T06:12:36.276Z,7.22
2019-04-14T06:15:06.371Z,7.03
2019-04-14T06:17:35.920Z,5.80
2019-04-14T06:20:05.362Z,6.78
2019-04-14T06:22:41.091Z,7.37
2019-04-14T06:25:10.930Z,8.13
2019-04-14T06:27:40.772Z,4.75
2019-04-14T06:30:28.523Z,6.20
2019-04-14T06:33:00.386Z,6.45
2019-04-14T06:35:51.716Z,7.90
2019-04-14T06:38:28.191Z,9.18
2019-04-14T06:41:04.548Z,6.87
2019-04-14T06:43:33.983Z,6.60
2019-04-14T06:46:03.111Z,7.47
2019-04-14T06:48:32.951Z,6.78
2019-04-14T06:51:02.422Z,9.95
2019-04-14T06:53:32.250Z,7.70
2019-04-14T06:56:01.379Z,6.28
2019-04-14T06:58:30.871Z,5.75
2019-04-14T07:01:00.496Z,6.42
2019-04-14T07:03:29.716Z,6.22
2019-04-14T07:06:00.194Z,6.00
2019-04-14T07:08:29.978Z,5.22
2019-04-14T07:10:59.320Z,7.17
2019-04-14T07:13:28.824Z,5.67
2019-04-14T07:15:58.688Z,8.30
2019-04-14T07:18:28.160Z,5.58
2019-04-14T07:20:57.712Z,5.70
2019-04-14T07:23:26.867Z,7.55
2019-04-14T07:25:56.373Z,7.90
2019-04-14T07:28:25.985Z,6.55
2019-04-14T07:31:12.250Z,10.30
2019-04-14T07:34:03.875Z,8.55
2019-04-14T07:37:02.711Z,5.60
2019-04-14T07:39:41.730Z,7.00
2019-04-14T07:42:36.761Z,7.22
2019-04-14T07:45:25.255Z,6.90
2019-04-14T07:47:58.095Z,9.63
2019-04-14T07:50:33.302Z,9.30
2019-04-14T07:53:21.859Z,8.58
2019-04-14T07:56:20.842Z,6.92
2019-04-14T07:59:11.946Z,8.43
2019-04-14T08:02:03.684Z,9.30
2019-04-14T08:04:40.288Z,7.75
2019-04-14T08:07:10.163Z,7.10
2019-04-14T08:09:39.591Z,6.40
2019-04-14T08:12:08.727Z,6.80
2019-04-14T08:14:38.195Z,8.10
2019-04-14T08:17:07.399Z,7.20
2019-04-14T08:19:36.627Z,7.70
2019-04-14T08:22:05.854Z,7.87
2019-04-14T08:24:35.081Z,8.33
2019-04-14T08:27:04.601Z,7.30
2019-04-14T08:29:33.758Z,8.00
2019-04-14T08:32:02.943Z,6.97
2019-04-14T08:34:32.501Z,9.43
2019-04-14T08:37:01.635Z,10.48
2019-04-14T08:39:31.411Z,12.23
2019-04-14T08:42:10.835Z,8.33
2019-04-14T08:44:48.384Z,8.98
2019-04-14T08:47:40.099Z,8.00
2019-04-14T08:50:39.334Z,8.25
2019-04-14T08:53:10.540Z,10.98
2019-04-14T08:56:05.961Z,7.22
2019-04-14T08:58:43.855Z,6.75
2019-04-14T09:01:24.091Z,9.18
2019-04-14T09:03:57.915Z,7.50
2019-04-14T09:06:45.001Z,10.03
2019-04-14T09:09:32.700Z,7.53
2019-04-14T09:12:15.829Z,7.55
2019-04-14T09:14:42.831Z,7.53
2019-04-14T09:17:12.145Z,9.60
2019-04-14T09:19:41.941Z,9.20
2019-04-14T09:22:11.514Z,7.97
2019-04-14T09:24:40.703Z,8.68
2019-04-14T09:27:09.920Z,8.13
2019-04-14T09:29:39.773Z,7.47
2019-04-14T09:32:10.791Z,6.95
2019-04-14T09:34:40.311Z,6.40
2019-04-14T09:37:12.070Z,9.23
2019-04-14T09:39:40.340Z,7.05
2019-04-14T09:42:09.482Z,10.48
2019-04-14T09:44:39.206Z,7.62
2019-04-14T09:47:08.334Z,9.60
2019-04-14T09:49:37.861Z,9.60
2019-04-14T09:52:06.983Z,9.48
2019-04-14T09:54:36.773Z,8.58
2019-04-14T09:57:06.417Z,9.65
2019-04-14T09:59:36.079Z,10.45
2019-04-14T10:02:05.698Z,10.50
2019-04-14T10:04:35.541Z,8.38
2019-04-14T10:07:05.532Z,9.25
2019-04-14T10:09:35.443Z,9.05
2019-04-14T10:12:04.647Z,7.30
2019-04-14T10:14:34.135Z,8.83
2019-04-14T10:17:03.267Z,9.55
2019-04-14T10:19:32.847Z,8.78
2019-04-14T10:22:01.987Z,10.15
2019-04-14T10:24:31.128Z,6.22
2019-04-14T10:27:00.556Z,7.85
2019-04-14T10:29:30.044Z,9.23
2019-04-14T10:32:00.090Z,9.28
2019-04-14T10:34:29.260Z,10.88
2019-04-14T10:36:58.388Z,10.25
2019-04-14T10:39:27.890Z,8.88
2019-04-14T10:41:57.612Z,9.68
2019-04-14T10:44:26.882Z,9.30
2019-04-14T10:46:56.487Z,8.83
2019-04-14T10:49:26.432Z,7.75
2019-04-14T10:51:56.161Z,11.90
2019-04-14T10:54:25.858Z,9.65
2019-04-14T10:56:55.454Z,8.93
2019-04-14T10:59:24.615Z,10.15
2019-04-14T11:01:54.467Z,8.18
2019-04-14T11:04:24.503Z,8.80
2019-04-14T11:07:01.795Z,10.35
2019-04-14T11:09:31.238Z,8.53
2019-04-14T11:12:01.639Z,11.97
2019-04-14T11:14:31.146Z,10.65
2019-04-14T11:17:00.708Z,8.45
2019-04-14T11:19:29.854Z,11.68
2019-04-14T11:21:58.976Z,9.00
2019-04-14T11:24:28.584Z,10.43
2019-04-14T11:26:57.708Z,10.13
2019-04-14T11:29:27.191Z,10.80
2019-04-14T11:32:24.658Z,9.80
2019-04-14T11:35:16.243Z,9.93
2019-04-14T11:37:59.107Z,8.48
2019-04-14T11:40:34.555Z,9.80
2019-04-14T11:43:03.636Z,9.93
2019-04-14T11:45:33.561Z,8.60
2019-04-14T11:48:02.832Z,9.78
2019-04-14T11:50:32.088Z,10.80
2019-04-14T11:53:01.227Z,8.73
2019-04-14T11:55:30.860Z,8.05
2019-04-14T11:58:00.598Z,7.95
2019-04-14T12:00:57.833Z,8.23
2019-04-14T12:03:45.073Z,8.28
2019-04-14T12:06:46.099Z,12.47
2019-04-14T12:09:27.989Z,9.18
2019-04-14T12:11:57.219Z,9.43
2019-04-14T12:14:26.386Z,10.20
2019-04-14T12:16:55.859Z,9.60
2019-04-14T12:19:25.109Z,8.70
2019-04-14T12:22:07.415Z,7.75
2019-04-14T12:24:25.439Z,7.28
2019-04-14T12:26:54.844Z,8.83
2019-04-14T12:29:24.658Z,9.75
2019-04-14T12:31:55.236Z,9.45
2019-04-14T12:34:25.229Z,10.85
2019-04-14T12:36:55.108Z,10.38
2019-04-14T12:39:24.983Z,9.75
2019-04-14T12:42:07.135Z,8.68
2019-04-14T12:44:43.407Z,9.25
2019-04-14T12:47:23.750Z,7.65
2019-04-14T12:49:53.232Z,8.83
2019-04-14T12:52:24.611Z,9.60
2019-04-14T12:54:53.848Z,10.25
2019-04-14T12:57:44.776Z,9.43
2019-04-14T13:00:29.036Z,8.78
2019-04-14T13:02:58.226Z,8.73
2019-04-14T13:05:27.376Z,6.92
2019-04-14T13:07:57.065Z,10.00
2019-04-14T13:10:26.306Z,8.80
2019-04-14T13:12:55.719Z,9.08
2019-04-14T13:15:24.944Z,9.73
2019-04-14T13:17:54.363Z,8.55
2019-04-14T13:20:23.889Z,8.75
2019-04-14T13:22:53.015Z,8.10
2019-04-14T13:25:22.183Z,9.18
2019-04-14T13:27:51.768Z,8.80
2019-04-14T13:30:26.330Z,7.60
2019-04-14T13:32:55.736Z,6.65
2019-04-14T13:35:25.336Z,11.43
2019-04-14T13:37:54.469Z,8.75
2019-04-14T13:40:24.363Z,6.87
2019-04-14T13:42:53.560Z,6.37
2019-04-14T13:45:23.064Z,7.25
2019-04-14T13:47:52.199Z,6.33
2019-04-14T13:50:21.939Z,5.80
2019-04-14T13:52:51.479Z,7.80
2019-04-14T13:55:21.163Z,6.92
2019-04-14T13:57:50.691Z,5.67
2019-04-14T14:00:22.057Z,6.87
2019-04-14T14:02:51.367Z,7.83
2019-04-14T14:05:20.521Z,4.35
2019-04-14T14:07:49.671Z,4.85
2019-04-14T14:10:19.183Z,5.12
2019-04-14T14:13:13.823Z,6.65
2019-04-14T14:16:01.345Z,4.87
2019-04-14T14:18:58.544Z,5.55
2019-04-14T14:21:46.739Z,3.98
2019-04-14T14:24:28.471Z,4.35
2019-04-14T14:26:57.738Z,7.92
2019-04-14T14:29:27.251Z,6.17
2019-04-14T14:31:57.418Z,4.83
2019-04-14T14:34:26.972Z,4.62
2019-04-14T14:36:56.810Z,6.20
2019-04-14T14:39:25.934Z,6.85
2019-04-14T14:41:56.766Z,4.45
2019-04-14T14:44:31.519Z,4.50
2019-04-14T14:47:13.887Z,6.83
2019-04-14T14:50:04.705Z,4.37
2019-04-14T14:52:35.327Z,5.97
2019-04-14T14:55:04.972Z,5.35
2019-04-14T14:57:34.446Z,6.45
2019-04-14T15:00:03.919Z,6.05
2019-04-14T15:02:33.465Z,7.37
2019-04-14T15:05:02.600Z,7.00
2019-04-14T15:07:32.907Z,6.87
2019-04-14T15:10:02.806Z,6.15
2019-04-14T15:12:32.703Z,7.28
2019-04-14T15:15:01.826Z,5.03
2019-04-14T15:17:31.724Z,8.68
2019-04-14T15:20:01.909Z,8.55
2019-04-14T15:22:32.033Z,5.65
2019-04-14T15:25:01.235Z,5.97
2019-04-14T15:27:30.543Z,8.10
2019-04-14T15:30:00.057Z,6.50
2019-04-14T15:32:29.567Z,7.00
2019-04-14T15:34:58.768Z,5.00
2019-04-14T15:37:27.920Z,6.87
2019-04-14T15:39:57.347Z,6.78
2019-04-14T15:42:27.205Z,6.05
2019-04-14T15:44:56.948Z,5.05
2019-04-14T15:47:26.180Z,5.22
2019-04-14T15:49:55.851Z,6.08
2019-04-14T15:52:25.026Z,5.10
2019-04-14T15:54:54.150Z,5.78
2019-04-14T15:57:51.608Z,5.10
2019-04-14T16:00:49.153Z,6.20
2019-04-14T16:03:47.031Z,5.45
2019-04-14T16:06:41.282Z,5.45
2019-04-14T16:09:19.948Z,7.75
2019-04-14T16:11:57.560Z,5.65
2019-04-14T16:14:39.039Z,6.28
2019-04-14T16:17:45.788Z,5.15
2019-04-14T16:20:28.117Z,4.30
2019-04-14T16:22:57.328Z,4.35
2019-04-14T16:25:39.682Z,5.12
2019-04-14T16:28:14.959Z,5.50
2019-04-14T16:31:15.668Z,5.28
2019-04-14T16:34:18.929Z,5.35
2019-04-14T16:36:49.055Z,5.17
2019-04-14T16:39:18.661Z,4.05
2019-04-14T16:41:48.632Z,3.72
2019-04-14T16:44:17.893Z,7.53
2019-04-14T16:46:47.059Z,6.25
2019-04-14T16:49:16.777Z,3.90
2019-04-14T16:51:50.742Z,5.15
2019-04-14T16:54:26.539Z,4.08
2019-04-14T16:57:18.075Z,5.53
2019-04-14T16:59:47.511Z,5.08
2019-04-14T17:02:16.748Z,4.17
2019-04-14T17:04:45.936Z,3.58
2019-04-14T17:07:15.852Z,6.03
2019-04-14T17:09:45.719Z,6.28
2019-04-14T17:12:15.279Z,4.47
2019-04-14T17:14:59.731Z,6.33
2019-04-14T17:17:37.618Z,3.67
2019-04-14T17:20:22.426Z,3.62
2019-04-14T17:23:17.239Z,3.83
2019-04-14T17:25:56.835Z,3.90
2019-04-14T17:28:38.421Z,5.53
2019-04-14T17:31:14.965Z,3.30
2019-04-14T17:33:51.153Z,3.33
2019-04-14T17:36:42.763Z,5.58
2019-04-14T17:39:39.947Z,4.67
2019-04-14T17:42:26.017Z,3.98
2019-04-14T17:45:26.616Z,5.28
2019-04-14T17:48:11.626Z,3.60
2019-04-14T17:51:03.329Z,3.55
2019-04-14T17:53:42.791Z,3.10
2019-04-14T17:56:16.756Z,4.33
2019-04-14T17:59:04.951Z,3.80
2019-04-14T18:01:55.981Z,3.30
2019-04-14T18:04:35.907Z,5.03
2019-04-14T18:07:14.118Z,3.62
2019-04-14T18:10:14.699Z,3.75
2019-04-14T18:13:05.240Z,4.40
2019-04-14T18:15:59.535Z,4.22
2019-04-14T18:18:50.497Z,5.37
2019-04-14T18:21:19.960Z,4.62
2019-04-14T18:23:49.459Z,4.47
2019-04-14T18:26:18.671Z,5.03
2019-04-14T18:28:55.682Z,4.95
2019-04-14T18:31:42.979Z,6.08
2019-04-14T18:34:37.469Z,4.47
2019-04-14T18:37:14.122Z,6.47
2019-04-14T18:39:54.456Z,7.10
2019-04-14T18:42:37.428Z,4.70
2019-04-14T18:45:25.095Z,3.70
2019-04-14T18:48:11.419Z,3.35
2019-04-14T18:50:51.872Z,4.35
2019-04-14T18:53:24.063Z,5.85
2019-04-14T18:56:18.978Z,3.87
2019-04-14T18:59:10.182Z,4.78
2019-04-14T19:01:41.659Z,4.35
2019-04-14T19:04:11.094Z,3.10
2019-04-14T19:06:40.259Z,6.05
2019-04-14T19:09:09.468Z,6.25
2019-04-14T19:11:56.563Z,3.55
2019-04-14T19:14:29.444Z,4.60
2019-04-14T19:17:09.799Z,6.20
2019-04-14T19:19:41.385Z,4.83
2019-04-14T19:22:10.955Z,5.28
2019-04-14T19:24:40.416Z,3.52
2019-04-14T19:27:09.592Z,4.83
2019-04-14T19:29:38.758Z,4.45
2019-04-14T19:32:07.976Z,6.08
2019-04-14T19:34:37.579Z,4.42
2019-04-14T19:37:06.753Z,3.08
2019-04-14T19:39:35.952Z,4.37
2019-04-14T19:42:05.838Z,7.42
2019-04-14T19:44:35.012Z,6.08
2019-04-14T19:47:04.267Z,5.60
2019-04-14T19:49:33.692Z,4.72
2019-04-14T19:52:03.188Z,3.90
2019-04-14T19:54:32.302Z,5.70
2019-04-14T19:57:01.802Z,4.55
2019-04-14T19:59:31.580Z,5.83
2019-04-14T20:02:01.104Z,3.60
2019-04-14T20:04:30.603Z,4.42
2019-04-14T20:06:59.784Z,4.45
2019-04-14T20:09:30.807Z,4.22
2019-04-14T20:11:59.782Z,4.90
2019-04-14T20:14:29.399Z,5.12
2019-04-14T20:17:22.416Z,3.75
2019-04-14T20:20:12.395Z,3.72
2019-04-14T20:23:04.412Z,4.17
2019-04-14T20:26:04.879Z,3.08
2019-04-14T20:28:44.655Z,4.60
2019-04-14T20:31:24.087Z,4.30
2019-04-14T20:33:53.564Z,3.90
2019-04-14T20:36:22.971Z,4.10
2019-04-14T20:38:52.980Z,4.28
2019-04-14T20:41:22.507Z,3.67
2019-04-14T20:43:51.852Z,2.77
2019-04-14T20:46:22.371Z,3.42
2019-04-14T20:48:52.131Z,2.80
2019-04-14T20:51:21.261Z,4.10
2019-04-14T20:53:50.485Z,3.62
2019-04-14T20:56:19.631Z,4.55
2019-04-14T20:58:48.787Z,4.55
2019-04-14T21:01:18.287Z,5.55
2019-04-14T21:04:06.480Z,3.98
2019-04-14T21:07:11.531Z,4.03
2019-04-14T21:09:48.204Z,3.67
2019-04-14T21:12:26.290Z,4.53
2019-04-14T21:15:02.467Z,3.50
2019-04-14T21:17:51.021Z,2.72
2019-04-14T21:20:26.275Z,4.87
2019-04-14T21:23:11.097Z,5.37
2019-04-14T21:26:14.816Z,5.20
2019-04-14T21:28:50.931Z,3.42
2019-04-14T21:31:32.496Z,4.28
2019-04-14T21:34:23.837Z,3.75
2019-04-14T21:36:58.708Z,2.75
2019-04-14T21:39:50.923Z,3.30
2019-04-14T21:42:21.170Z,4.35
2019-04-14T21:44:50.570Z,2.87
2019-04-14T21:47:19.758Z,2.85
2019-04-14T21:49:49.199Z,3.42
2019-04-14T21:52:40.123Z,4.47
2019-04-14T21:55:09.471Z,3.70
2019-04-14T21:58:10.312Z,3.90
2019-04-14T22:01:49.108Z,3.12
2019-04-14T22:04:36.419Z,2.45
2019-04-14T22:07:34.199Z,4.15
2019-04-14T22:10:12.467Z,4.35
2019-04-14T22:12:42.055Z,4.03
2019-04-14T22:15:14.447Z,4.00
2019-04-14T22:17:43.729Z,5.97
2019-04-14T22:20:13.291Z,3.87
2019-04-14T22:22:42.908Z,5.15
2019-04-14T22:25:12.114Z,4.03
2019-04-14T22:27:41.743Z,3.85
2019-04-14T22:30:10.871Z,4.75
2019-04-14T22:32:40.833Z,2.58
2019-04-14T22:35:10.476Z,3.50
2019-04-14T22:37:39.955Z,4.62
2019-04-14T22:40:09.354Z,5.42
2019-04-14T22:42:39.152Z,3.95
2019-04-14T22:45:08.363Z,2.58
2019-04-14T22:47:37.846Z,3.60
2019-04-14T22:50:08.691Z,3.15
2019-04-14T22:52:38.207Z,4.33
2019-04-14T22:55:07.603Z,2.72
2019-04-14T22:57:37.181Z,3.58
2019-04-14T23:00:08.638Z,3.22
2019-04-14T23:03:09.090Z,3.05
2019-04-14T23:06:01.850Z,3.00
2019-04-14T23:08:41.926Z,3.20
2019-04-14T23:11:28.769Z,2.22
2019-04-14T23:14:20.516Z,2.65
2019-04-14T23:17:07.294Z,2.92
2019-04-14T23:19:55.488Z,2.22
2019-04-14T23:22:42.567Z,2.87
2019-04-14T23:25:11.915Z,3.17
2019-04-14T23:27:41.039Z,3.95
2019-04-14T23:30:10.469Z,3.62
2019-04-14T23:32:39.625Z,2.47
2019-04-14T23:35:08.778Z,3.33
2019-04-14T23:37:37.890Z,3.42
2019-04-14T23:40:07.510Z,3.47
2019-04-14T23:42:37.027Z,3.77
2019-04-14T23:45:06.282Z,2.00
2019-04-14T23:47:36.243Z,2.40
2019-04-14T23:50:05.980Z,2.92
2019-04-14T23:52:35.899Z,3.15
2019-04-14T23:55:05.499Z,5.00
2019-04-14T23:57:35.205Z,2.70
